createdAt,value
2019-01-30T00:00:56.007Z,5.50
2019-01-30T00:01:55.906Z,4.90
2019-01-30T00:02:55.901Z,4.70
2019-01-30T00:03:55.842Z,4.50
2019-01-30T00:04:55.872Z,4.70
2019-01-30T00:05:55.930Z,4.50
2019-01-30T00:06:55.838Z,4.70
2019-01-30T00:07:55.799Z,4.70
2019-01-30T00:08:55.789Z,4.60
2019-01-30T00:09:55.805Z,4.50
2019-01-30T00:10:55.761Z,5.00
2019-01-30T00:11:55.777Z,4.60
2019-01-30T00:12:55.736Z,4.60
2019-01-30T00:13:55.757Z,4.60
2019-01-30T00:14:55.776Z,5.00
2019-01-30T00:15:56.708Z,4.70
2019-01-30T00:16:55.764Z,4.70
2019-01-30T00:17:55.715Z,4.60
2019-01-30T00:18:56.493Z,4.30
2019-01-30T00:19:55.686Z,4.50
2019-01-30T00:20:55.699Z,4.50
2019-01-30T00:21:55.688Z,4.90
2019-01-30T00:22:55.846Z,4.50
2019-01-30T00:23:55.660Z,4.40
2019-01-30T00:24:55.608Z,4.60
2019-01-30T00:25:55.662Z,4.40
2019-01-30T00:26:55.650Z,4.70
2019-01-30T00:27:55.666Z,4.90
2019-01-30T00:28:55.655Z,4.40
2019-01-30T00:30:03.827Z,4.90
2019-01-30T00:30:56.728Z,4.50
2019-01-30T00:31:55.544Z,4.70
2019-01-30T00:32:55.616Z,4.90
2019-01-30T00:33:55.543Z,5.10
2019-01-30T00:34:55.545Z,5.00
2019-01-30T00:35:55.528Z,4.70
2019-01-30T00:36:55.478Z,5.10
2019-01-30T00:37:55.458Z,4.80
2019-01-30T00:38:55.659Z,4.50
2019-01-30T00:39:55.439Z,4.90
2019-01-30T00:40:55.426Z,4.40
2019-01-30T00:41:55.484Z,4.80
2019-01-30T00:42:55.456Z,4.40
2019-01-30T00:43:55.397Z,4.70
2019-01-30T00:44:55.463Z,5.00
2019-01-30T00:45:55.365Z,5.10
2019-01-30T00:46:55.377Z,5.10
2019-01-30T00:47:55.353Z,4.60
2019-01-30T00:48:55.358Z,4.70
2019-01-30T00:49:55.404Z,5.00
2019-01-30T00:50:55.382Z,4.60
2019-01-30T00:51:55.300Z,4.60
2019-01-30T00:52:55.319Z,4.50
2019-01-30T00:53:55.293Z,5.10
2019-01-30T00:54:55.339Z,4.80
2019-01-30T00:55:55.272Z,4.40
2019-01-30T00:56:55.292Z,4.90
2019-01-30T00:57:55.251Z,4.70
2019-01-30T00:58:55.236Z,4.40
2019-01-30T00:59:55.998Z,4.60
2019-01-30T01:00:55.216Z,4.40
2019-01-30T01:01:55.205Z,4.50
2019-01-30T01:02:55.291Z,4.90
2019-01-30T01:03:55.178Z,4.50
2019-01-30T01:04:55.174Z,4.60
2019-01-30T01:05:55.211Z,4.50
2019-01-30T01:06:55.137Z,4.80
2019-01-30T01:07:55.173Z,4.50
2019-01-30T01:08:55.132Z,4.60
2019-01-30T01:09:55.145Z,4.60
2019-01-30T01:10:55.111Z,4.30
2019-01-30T01:11:55.104Z,4.70
2019-01-30T01:12:55.122Z,4.40
2019-01-30T01:13:55.081Z,4.10
2019-01-30T01:14:55.051Z,4.20
2019-01-30T01:15:55.054Z,4.90
2019-01-30T01:16:55.023Z,4.70
2019-01-30T01:17:55.089Z,4.90
2019-01-30T01:18:55.169Z,4.20
2019-01-30T01:19:55.001Z,4.60
2019-01-30T01:20:54.998Z,4.30
2019-01-30T01:21:55.140Z,4.50
2019-01-30T01:22:54.976Z,4.40
2019-01-30T01:23:55.045Z,4.40
2019-01-30T01:24:54.985Z,4.60
2019-01-30T01:25:54.939Z,4.70
2019-01-30T01:26:54.929Z,4.70
2019-01-30T01:27:54.911Z,4.70
2019-01-30T01:28:54.910Z,4.80
2019-01-30T01:29:54.945Z,4.80
2019-01-30T01:30:54.960Z,4.40
2019-01-30T01:31:54.880Z,5.00
2019-01-30T01:32:54.972Z,4.50
2019-01-30T01:33:54.837Z,4.30
2019-01-30T01:34:54.834Z,4.80
2019-01-30T01:35:54.843Z,4.60
2019-01-30T01:36:54.833Z,4.50
2019-01-30T01:37:54.793Z,5.00
2019-01-30T01:38:54.822Z,4.80
2019-01-30T01:39:54.787Z,4.70
2019-01-30T01:40:54.756Z,4.70
2019-01-30T01:41:54.749Z,4.40
2019-01-30T01:42:54.990Z,4.30
2019-01-30T01:43:54.730Z,4.90
2019-01-30T01:44:54.723Z,4.50
2019-01-30T01:45:54.764Z,5.20
2019-01-30T01:46:54.717Z,4.60
2019-01-30T01:47:54.723Z,4.50
2019-01-30T01:49:01.879Z,4.50
2019-01-30T01:49:54.703Z,4.80
2019-01-30T01:50:54.686Z,4.70
2019-01-30T01:51:54.646Z,5.00
2019-01-30T01:52:54.652Z,4.70
2019-01-30T01:53:54.627Z,4.90
2019-01-30T01:54:54.630Z,4.60
2019-01-30T01:55:54.605Z,4.90
2019-01-30T01:56:54.667Z,4.90
2019-01-30T01:57:54.582Z,4.60
2019-01-30T01:58:54.783Z,4.90
2019-01-30T01:59:54.564Z,4.70
2019-01-30T02:00:54.541Z,5.30
2019-01-30T02:01:55.539Z,4.80
2019-01-30T02:02:54.522Z,4.40
2019-01-30T02:03:54.507Z,4.70
2019-01-30T02:04:54.618Z,4.90
2019-01-30T02:05:54.534Z,4.80
2019-01-30T02:06:54.484Z,4.40
2019-01-30T02:07:54.466Z,4.80
2019-01-30T02:08:54.450Z,4.40
2019-01-30T02:09:54.496Z,5.00
2019-01-30T02:10:54.530Z,4.70
2019-01-30T02:11:54.430Z,4.80
2019-01-30T02:12:54.408Z,4.90
2019-01-30T02:13:54.393Z,4.80
2019-01-30T02:14:54.427Z,4.80
2019-01-30T02:15:54.374Z,4.40
2019-01-30T02:16:54.376Z,4.60
2019-01-30T02:17:54.379Z,4.80
2019-01-30T02:18:54.343Z,5.00
2019-01-30T02:19:54.329Z,5.00
2019-01-30T02:20:54.402Z,4.20
2019-01-30T02:21:54.306Z,4.50
2019-01-30T02:22:54.309Z,4.40
2019-01-30T02:23:54.287Z,4.70
2019-01-30T02:24:54.282Z,5.00
2019-01-30T02:25:54.271Z,4.60
2019-01-30T02:26:54.287Z,4.60
2019-01-30T02:27:54.257Z,4.60
2019-01-30T02:28:54.370Z,4.60
2019-01-30T02:29:54.215Z,4.70
2019-01-30T02:30:54.204Z,4.50
2019-01-30T02:31:54.241Z,4.70
2019-01-30T02:32:54.369Z,4.70
2019-01-30T02:33:54.169Z,4.40
2019-01-30T02:34:54.156Z,4.90
2019-01-30T02:35:54.150Z,4.40
2019-01-30T02:36:54.142Z,5.00
2019-01-30T02:37:54.168Z,5.10
2019-01-30T02:38:54.111Z,4.50
2019-01-30T02:39:54.120Z,4.50
2019-01-30T02:40:54.107Z,4.70
2019-01-30T02:41:54.083Z,4.50
2019-01-30T02:42:54.073Z,4.40
2019-01-30T02:43:54.091Z,5.00
2019-01-30T02:44:55.032Z,4.70
2019-01-30T02:45:54.042Z,5.00
2019-01-30T02:46:54.046Z,4.90
2019-01-30T02:47:54.022Z,4.70
2019-01-30T02:48:54.042Z,5.00
2019-01-30T02:49:54.041Z,4.80
2019-01-30T02:50:54.111Z,4.30
2019-01-30T02:51:53.976Z,5.00
2019-01-30T02:52:53.960Z,4.50
2019-01-30T02:53:53.954Z,5.00
2019-01-30T02:54:53.980Z,4.80
2019-01-30T02:55:53.936Z,4.80
2019-01-30T02:56:53.953Z,5.00
2019-01-30T02:57:53.907Z,4.80
2019-01-30T02:58:53.899Z,4.70
2019-01-30T02:59:53.888Z,4.80
2019-01-30T03:00:59.464Z,4.90
2019-01-30T03:01:54.874Z,5.30
2019-01-30T03:02:53.873Z,5.10
2019-01-30T03:03:53.848Z,5.40
2019-01-30T03:04:53.849Z,5.40
2019-01-30T03:05:53.844Z,5.10
2019-01-30T03:06:53.877Z,4.90
2019-01-30T03:07:53.974Z,5.00
2019-01-30T03:08:53.794Z,4.60
2019-01-30T03:09:53.778Z,4.90
2019-01-30T03:10:53.766Z,4.60
2019-01-30T03:11:53.765Z,4.40
2019-01-30T03:12:53.784Z,5.30
2019-01-30T03:13:53.728Z,4.80
2019-01-30T03:14:53.723Z,4.90
2019-01-30T03:15:53.714Z,5.10
2019-01-30T03:16:53.707Z,5.10
2019-01-30T03:17:53.908Z,5.10
2019-01-30T03:18:53.677Z,5.00
2019-01-30T03:19:53.665Z,4.80
2019-01-30T03:20:53.778Z,4.80
2019-01-30T03:21:53.658Z,5.10
2019-01-30T03:22:53.661Z,5.10
2019-01-30T03:23:53.667Z,5.40
2019-01-30T03:24:53.657Z,4.90
2019-01-30T03:25:53.608Z,4.60
2019-01-30T03:26:53.593Z,4.90
2019-01-30T03:27:53.591Z,4.70
2019-01-30T03:28:53.601Z,5.20
2019-01-30T03:29:53.578Z,5.00
2019-01-30T03:30:53.565Z,4.90
2019-01-30T03:31:53.541Z,4.90
2019-01-30T03:32:53.703Z,5.10
2019-01-30T03:33:53.534Z,4.90
2019-01-30T03:34:53.545Z,4.70
2019-01-30T03:35:53.513Z,5.10
2019-01-30T03:36:53.517Z,5.30
2019-01-30T03:37:53.474Z,5.00
2019-01-30T03:38:53.466Z,5.00
2019-01-30T03:39:53.448Z,5.40
2019-01-30T03:40:53.469Z,5.20
2019-01-30T03:41:53.429Z,5.00
2019-01-30T03:42:53.416Z,5.40
2019-01-30T03:43:53.466Z,5.00
2019-01-30T03:44:53.465Z,5.00
2019-01-30T03:45:53.407Z,5.10
2019-01-30T03:46:53.368Z,5.30
2019-01-30T03:47:53.423Z,5.10
2019-01-30T03:48:53.359Z,4.90
2019-01-30T03:49:53.347Z,5.00
2019-01-30T03:50:53.383Z,4.90
2019-01-30T03:51:53.336Z,5.40
2019-01-30T03:52:53.306Z,5.00
2019-01-30T03:53:53.299Z,5.40
2019-01-30T03:54:53.284Z,4.80
2019-01-30T03:55:53.293Z,5.00
2019-01-30T03:56:53.279Z,4.40
2019-01-30T03:57:53.296Z,5.10
2019-01-30T03:58:53.237Z,4.70
2019-01-30T03:59:53.233Z,5.00
2019-01-30T04:00:54.037Z,4.10
2019-01-30T04:01:53.212Z,4.90
2019-01-30T04:02:53.223Z,4.90
2019-01-30T04:03:53.282Z,4.40
2019-01-30T04:04:53.205Z,4.90
2019-01-30T04:05:53.174Z,4.60
2019-01-30T04:06:53.149Z,4.60
2019-01-30T04:07:53.146Z,5.30
2019-01-30T04:08:53.136Z,5.20
2019-01-30T04:09:53.161Z,5.10
2019-01-30T04:10:53.111Z,5.00
2019-01-30T04:11:53.097Z,5.50
2019-01-30T04:12:53.287Z,5.00
2019-01-30T04:13:53.093Z,5.50
2019-01-30T04:14:53.063Z,5.30
2019-01-30T04:15:53.081Z,5.20
2019-01-30T04:16:53.045Z,5.10
2019-01-30T04:17:53.119Z,4.90
2019-01-30T04:18:53.024Z,4.90
2019-01-30T04:19:53.015Z,5.40
2019-01-30T04:20:53.048Z,5.30
2019-01-30T04:21:52.992Z,5.70
2019-01-30T04:22:53.012Z,5.20
2019-01-30T04:23:52.973Z,5.00
2019-01-30T04:24:53.123Z,5.70
2019-01-30T04:25:52.976Z,5.90
2019-01-30T04:26:52.935Z,5.90
2019-01-30T04:27:52.931Z,6.00
2019-01-30T04:28:52.912Z,5.80
2019-01-30T04:29:52.916Z,5.80
2019-01-30T04:30:52.926Z,5.90
2019-01-30T04:31:52.900Z,6.10
2019-01-30T04:32:52.875Z,6.00
2019-01-30T04:33:52.855Z,5.70
2019-01-30T04:34:52.845Z,6.50
2019-01-30T04:35:52.878Z,6.50
2019-01-30T04:36:52.826Z,6.30
2019-01-30T04:37:52.830Z,5.90
2019-01-30T04:38:52.802Z,5.90
2019-01-30T04:39:52.793Z,5.90
2019-01-30T04:40:52.827Z,6.50
2019-01-30T04:41:52.802Z,5.90
2019-01-30T04:42:52.773Z,6.20
2019-01-30T04:43:52.753Z,6.40
2019-01-30T04:44:52.738Z,6.20
2019-01-30T04:45:52.726Z,6.10
2019-01-30T04:46:52.744Z,6.00
2019-01-30T04:47:52.758Z,6.30
2019-01-30T04:48:52.698Z,6.40
2019-01-30T04:49:52.691Z,6.00
2019-01-30T04:50:52.714Z,6.10
2019-01-30T04:51:52.698Z,5.80
2019-01-30T04:52:52.646Z,6.30
2019-01-30T04:53:52.671Z,6.60
2019-01-30T04:54:52.630Z,6.20
2019-01-30T04:55:52.617Z,6.50
2019-01-30T04:56:52.796Z,6.20
2019-01-30T04:57:52.596Z,6.50
2019-01-30T04:58:52.633Z,6.30
2019-01-30T04:59:52.672Z,6.70
2019-01-30T05:00:52.564Z,6.80
2019-01-30T05:01:52.577Z,6.50
2019-01-30T05:02:52.547Z,6.60
2019-01-30T05:03:52.532Z,6.60
2019-01-30T05:04:52.526Z,6.00
2019-01-30T05:05:52.507Z,7.00
2019-01-30T05:06:52.521Z,6.60
2019-01-30T05:07:52.558Z,6.40
2019-01-30T05:08:52.526Z,6.80
2019-01-30T05:09:52.482Z,7.50
2019-01-30T05:10:52.466Z,8.00
2019-01-30T05:11:52.473Z,7.50
2019-01-30T05:12:52.437Z,7.70
2019-01-30T05:13:52.427Z,8.00
2019-01-30T05:14:52.408Z,7.80
2019-01-30T05:15:52.402Z,7.90
2019-01-30T05:16:52.422Z,7.60
2019-01-30T05:17:52.433Z,7.60
2019-01-30T05:18:52.454Z,7.20
2019-01-30T05:19:52.362Z,7.70
2019-01-30T05:20:52.394Z,74.80
2019-01-30T05:21:52.341Z,38.20
2019-01-30T05:22:52.332Z,53.60
2019-01-30T05:23:52.366Z,20.00
2019-01-30T05:24:52.371Z,8.70
2019-01-30T05:25:52.312Z,10.30
2019-01-30T05:26:52.355Z,10.50
2019-01-30T05:27:52.281Z,9.40
2019-01-30T05:28:52.299Z,9.40
2019-01-30T05:29:52.385Z,9.30
2019-01-30T05:30:52.261Z,21.00
2019-01-30T05:32:00.984Z,57.20
2019-01-30T05:32:53.230Z,63.70
2019-01-30T05:33:52.215Z,13.90
2019-01-30T05:34:52.236Z,8.90
2019-01-30T05:35:52.204Z,9.20
2019-01-30T05:36:52.191Z,7.90
2019-01-30T05:37:52.191Z,7.20
2019-01-30T05:38:52.160Z,6.20
2019-01-30T05:39:52.151Z,6.80
2019-01-30T05:40:52.154Z,6.30
2019-01-30T05:41:52.117Z,5.90
2019-01-30T05:42:52.110Z,6.20
2019-01-30T05:43:52.111Z,6.30
2019-01-30T05:44:52.130Z,6.50
2019-01-30T05:45:52.147Z,11.40
2019-01-30T05:46:52.067Z,42.80
2019-01-30T05:47:52.078Z,85.60
2019-01-30T05:48:52.059Z,70.20
2019-01-30T05:49:52.026Z,45.20
2019-01-30T05:50:52.273Z,19.90
2019-01-30T05:51:52.066Z,8.50
2019-01-30T05:52:52.007Z,7.80
2019-01-30T05:53:52.184Z,7.10
2019-01-30T05:54:52.067Z,6.50
2019-01-30T05:55:51.975Z,6.80
2019-01-30T05:56:51.972Z,6.80
2019-01-30T05:57:51.950Z,5.60
2019-01-30T05:58:51.950Z,6.20
2019-01-30T05:59:51.920Z,6.10
2019-01-30T06:00:52.000Z,6.30
2019-01-30T06:01:51.902Z,6.50
2019-01-30T06:02:51.917Z,6.40
2019-01-30T06:03:51.883Z,6.10
2019-01-30T06:04:51.920Z,6.20
2019-01-30T06:05:51.884Z,5.70
2019-01-30T06:06:52.046Z,5.80
2019-01-30T06:07:51.865Z,6.40
2019-01-30T06:08:52.552Z,6.10
2019-01-30T06:09:52.556Z,6.50
2019-01-30T06:10:51.846Z,6.70
2019-01-30T06:11:51.787Z,6.20
2019-01-30T06:12:51.863Z,7.20
2019-01-30T06:13:51.910Z,22.00
2019-01-30T06:14:51.820Z,28.90
2019-01-30T06:15:51.754Z,32.40
2019-01-30T06:16:51.953Z,14.80
2019-01-30T06:17:51.734Z,12.30
2019-01-30T06:18:51.719Z,9.40
2019-01-30T06:19:51.762Z,7.30
2019-01-30T06:20:51.705Z,6.80
2019-01-30T06:21:51.731Z,6.60
2019-01-30T06:22:51.666Z,7.00
2019-01-30T06:23:51.661Z,6.80
2019-01-30T06:24:51.674Z,6.60
2019-01-30T06:25:51.651Z,6.80
2019-01-30T06:26:51.626Z,6.20
2019-01-30T06:27:51.636Z,6.40
2019-01-30T06:28:51.621Z,6.00
2019-01-30T06:29:51.618Z,6.60
2019-01-30T06:30:51.604Z,6.40
2019-01-30T06:31:51.616Z,6.70
2019-01-30T06:32:51.576Z,5.90
2019-01-30T06:33:51.611Z,6.60
2019-01-30T06:34:51.534Z,6.70
2019-01-30T06:35:51.552Z,28.10
2019-01-30T06:36:51.585Z,115.20
2019-01-30T06:37:51.514Z,69.60
2019-01-30T06:38:51.495Z,13.30
2019-01-30T06:39:51.508Z,9.90
2019-01-30T06:40:51.509Z,6.80
2019-01-30T06:41:51.473Z,7.00
2019-01-30T06:42:51.463Z,7.20
2019-01-30T06:43:51.451Z,6.90
2019-01-30T06:44:51.460Z,6.60
2019-01-30T06:45:51.430Z,6.50
2019-01-30T06:46:51.404Z,7.20
2019-01-30T06:47:51.410Z,6.30
2019-01-30T06:48:51.381Z,6.70
2019-01-30T06:49:51.373Z,6.50
2019-01-30T06:50:51.422Z,7.30
2019-01-30T06:51:51.432Z,6.60
2019-01-30T06:52:52.058Z,6.60
2019-01-30T06:53:51.346Z,6.80
2019-01-30T06:54:51.322Z,6.60
2019-01-30T06:55:51.434Z,6.50
2019-01-30T06:56:51.306Z,6.90
2019-01-30T06:57:51.317Z,7.00
2019-01-30T06:58:51.273Z,7.30
2019-01-30T06:59:51.295Z,6.70
2019-01-30T07:00:52.829Z,6.70
2019-01-30T07:01:51.294Z,6.60
2019-01-30T07:02:51.225Z,7.40
2019-01-30T07:03:51.221Z,7.20
2019-01-30T07:04:51.206Z,7.10
2019-01-30T07:05:51.203Z,7.10
2019-01-30T07:06:51.188Z,6.80
2019-01-30T07:07:51.229Z,6.50
2019-01-30T07:08:51.295Z,6.40
2019-01-30T07:09:51.150Z,7.00
2019-01-30T07:10:51.149Z,6.80
2019-01-30T07:11:51.130Z,6.80
2019-01-30T07:12:51.150Z,7.20
2019-01-30T07:13:51.216Z,6.90
2019-01-30T07:14:51.101Z,6.60
2019-01-30T07:15:51.105Z,7.60
2019-01-30T07:16:51.199Z,7.10
2019-01-30T07:17:51.070Z,7.10
2019-01-30T07:18:51.142Z,7.10
2019-01-30T07:19:51.174Z,7.40
2019-01-30T07:20:51.060Z,6.90
2019-01-30T07:21:51.024Z,6.80
2019-01-30T07:22:51.027Z,6.90
2019-01-30T07:23:51.047Z,7.10
2019-01-30T07:24:50.989Z,7.20
2019-01-30T07:25:50.983Z,6.90
2019-01-30T07:26:50.978Z,7.00
2019-01-30T07:27:50.975Z,6.70
2019-01-30T07:28:51.562Z,7.00
2019-01-30T07:29:50.936Z,6.60
2019-01-30T07:30:50.971Z,6.40
2019-01-30T07:31:50.912Z,6.50
2019-01-30T07:32:51.075Z,7.10
2019-01-30T07:33:50.923Z,6.60
2019-01-30T07:34:50.900Z,7.10
2019-01-30T07:35:50.933Z,7.20
2019-01-30T07:36:50.919Z,7.40
2019-01-30T07:37:51.564Z,10.40
2019-01-30T07:38:50.850Z,59.10
2019-01-30T07:39:50.880Z,27.60
2019-01-30T07:40:50.899Z,38.10
2019-01-30T07:41:50.884Z,22.30
2019-01-30T07:42:50.874Z,11.60
2019-01-30T07:43:50.903Z,8.30
2019-01-30T07:44:51.249Z,8.00
2019-01-30T07:45:50.914Z,7.10
2019-01-30T07:46:50.784Z,7.10
2019-01-30T07:47:50.763Z,7.40
2019-01-30T07:48:58.357Z,6.70
2019-01-30T07:49:50.722Z,7.10
2019-01-30T07:50:50.698Z,7.20
2019-01-30T07:51:50.735Z,7.00
2019-01-30T07:52:50.712Z,7.50
2019-01-30T07:53:50.677Z,6.90
2019-01-30T07:54:50.671Z,7.10
2019-01-30T07:55:50.660Z,7.00
2019-01-30T07:56:50.665Z,7.20
2019-01-30T07:57:50.641Z,6.80
2019-01-30T07:58:50.653Z,6.50
2019-01-30T07:59:50.739Z,7.00
2019-01-30T08:00:50.713Z,7.20
2019-01-30T08:01:50.621Z,8.50
2019-01-30T08:02:53.514Z,26.30
2019-01-30T08:03:50.590Z,50.40
2019-01-30T08:04:50.559Z,14.30
2019-01-30T08:05:50.560Z,10.20
2019-01-30T08:06:50.536Z,9.00
2019-01-30T08:07:50.552Z,8.20
2019-01-30T08:08:50.519Z,8.10
2019-01-30T08:09:50.567Z,7.40
2019-01-30T08:10:50.502Z,7.50
2019-01-30T08:11:50.487Z,7.30
2019-01-30T08:12:50.508Z,6.90
2019-01-30T08:13:50.472Z,7.50
2019-01-30T08:14:50.440Z,7.00
2019-01-30T08:15:50.450Z,7.50
2019-01-30T08:16:50.475Z,7.40
2019-01-30T08:17:50.483Z,7.20
2019-01-30T08:18:50.429Z,6.90
2019-01-30T08:19:51.938Z,7.70
2019-01-30T08:20:50.381Z,7.40
2019-01-30T08:21:50.377Z,7.60
2019-01-30T08:22:50.455Z,7.40
2019-01-30T08:23:50.647Z,7.70
2019-01-30T08:24:50.411Z,7.90
2019-01-30T08:25:50.559Z,7.20
2019-01-30T08:26:50.311Z,7.20
2019-01-30T08:27:50.351Z,7.20
2019-01-30T08:28:50.319Z,7.40
2019-01-30T08:29:50.481Z,8.00
2019-01-30T08:30:50.401Z,7.60
2019-01-30T08:31:50.698Z,8.10
2019-01-30T08:32:50.638Z,7.50
2019-01-30T08:33:50.268Z,7.50
2019-01-30T08:34:50.224Z,7.80
2019-01-30T08:35:50.226Z,7.80
2019-01-30T08:36:50.277Z,6.80
2019-01-30T08:37:50.187Z,7.70
2019-01-30T08:38:50.183Z,7.60
2019-01-30T08:39:50.186Z,7.50
2019-01-30T08:40:50.158Z,7.90
2019-01-30T08:41:50.186Z,7.10
2019-01-30T08:42:52.090Z,6.90
2019-01-30T08:43:50.130Z,8.20
2019-01-30T08:44:50.119Z,7.70
2019-01-30T08:45:50.110Z,7.60
2019-01-30T08:46:50.093Z,7.40
2019-01-30T08:47:50.119Z,7.40
2019-01-30T08:48:50.193Z,7.30
2019-01-30T08:49:50.086Z,7.00
2019-01-30T08:50:50.051Z,7.50
2019-01-30T08:51:50.045Z,7.20
2019-01-30T08:52:50.031Z,8.00
2019-01-30T08:53:50.024Z,7.90
2019-01-30T08:54:50.115Z,8.60
2019-01-30T08:55:49.993Z,8.10
2019-01-30T08:56:52.974Z,8.00
2019-01-30T08:57:49.970Z,8.60
2019-01-30T08:58:49.967Z,8.50
2019-01-30T08:59:49.964Z,8.40
2019-01-30T09:00:49.975Z,8.90
2019-01-30T09:01:49.942Z,9.40
2019-01-30T09:02:49.922Z,8.60
2019-01-30T09:03:49.910Z,9.20
2019-01-30T09:04:49.931Z,8.80
2019-01-30T09:05:49.924Z,9.00
2019-01-30T09:06:49.899Z,9.30
2019-01-30T09:07:49.871Z,10.50
2019-01-30T09:08:49.850Z,9.80
2019-01-30T09:09:49.860Z,9.60
2019-01-30T09:10:49.867Z,9.40
2019-01-30T09:11:49.823Z,9.30
2019-01-30T09:12:49.812Z,9.70
2019-01-30T09:13:49.810Z,10.00
2019-01-30T09:14:49.784Z,9.80
2019-01-30T09:15:49.806Z,10.10
2019-01-30T09:16:49.792Z,10.70
2019-01-30T09:17:49.817Z,10.40
2019-01-30T09:18:49.916Z,9.60
2019-01-30T09:19:49.729Z,10.00
2019-01-30T09:20:49.725Z,10.00
2019-01-30T09:21:49.920Z,9.80
2019-01-30T09:22:49.708Z,10.70
2019-01-30T09:23:49.693Z,10.30
2019-01-30T09:24:49.721Z,10.00
2019-01-30T09:25:49.692Z,9.80
2019-01-30T09:26:49.668Z,10.60
2019-01-30T09:27:49.729Z,9.80
2019-01-30T09:28:49.635Z,10.60
2019-01-30T09:29:49.623Z,10.60
2019-01-30T09:30:49.634Z,10.30
2019-01-30T09:31:49.641Z,10.00
2019-01-30T09:32:49.707Z,10.10
2019-01-30T09:33:49.609Z,9.90
2019-01-30T09:34:49.576Z,10.10
2019-01-30T09:35:49.558Z,11.00
2019-01-30T09:36:49.585Z,11.10
2019-01-30T09:37:49.573Z,10.60
2019-01-30T09:38:49.547Z,10.70
2019-01-30T09:39:49.560Z,10.60
2019-01-30T09:46:28.058Z,9.50
2019-01-30T09:47:28.010Z,10.40
2019-01-30T09:48:28.229Z,10.90
2019-01-30T09:49:27.993Z,11.00
2019-01-30T09:50:28.077Z,11.50
2019-01-30T09:51:29.683Z,11.50
2019-01-30T09:52:35.024Z,11.80
2019-01-30T09:53:27.951Z,11.10
2019-01-30T09:54:27.983Z,11.70
2019-01-30T09:55:27.922Z,11.00
2019-01-30T09:56:28.016Z,10.60
2019-01-30T09:57:27.913Z,11.10
2019-01-30T09:58:27.893Z,12.20
2019-01-30T09:59:27.912Z,11.70
2019-01-30T10:00:27.874Z,12.00
2019-01-30T10:01:27.897Z,11.40
2019-01-30T10:02:27.876Z,10.80
2019-01-30T10:03:36.052Z,11.60
2019-01-30T10:04:28.872Z,11.60
2019-01-30T10:05:27.945Z,12.60
2019-01-30T10:06:28.675Z,12.20
2019-01-30T10:07:27.898Z,12.20
2019-01-30T10:08:27.790Z,13.10
2019-01-30T10:09:27.881Z,12.40
2019-01-30T10:10:27.770Z,12.70
2019-01-30T10:11:27.791Z,12.80
2019-01-30T10:12:27.815Z,13.40
2019-01-30T10:13:27.735Z,13.10
2019-01-30T10:14:27.736Z,12.80
2019-01-30T10:15:27.892Z,13.60
2019-01-30T10:16:27.728Z,13.20
2019-01-30T10:17:27.695Z,12.90
2019-01-30T10:18:27.767Z,13.30
2019-01-30T10:19:27.664Z,13.10
2019-01-30T10:20:27.683Z,13.00
2019-01-30T10:21:27.672Z,13.10
2019-01-30T10:22:27.666Z,12.20
2019-01-30T10:23:27.649Z,13.60
2019-01-30T10:24:29.068Z,69.90
2019-01-30T10:25:27.597Z,18.70
2019-01-30T10:26:27.589Z,14.00
2019-01-30T10:27:27.692Z,13.50
2019-01-30T10:28:27.643Z,13.10
2019-01-30T10:29:27.561Z,13.80
2019-01-30T10:30:27.545Z,13.90
2019-01-30T10:31:27.568Z,14.00
2019-01-30T10:32:27.529Z,14.60
2019-01-30T10:33:27.548Z,15.40
2019-01-30T10:34:27.546Z,15.40
2019-01-30T10:35:27.494Z,14.60
2019-01-30T10:36:27.475Z,15.80
2019-01-30T10:37:27.484Z,15.30
2019-01-30T10:38:27.458Z,22.70
2019-01-30T10:39:28.179Z,71.20
2019-01-30T10:40:27.473Z,67.40
2019-01-30T10:41:27.424Z,38.60
2019-01-30T10:42:27.469Z,18.40
2019-01-30T10:43:27.405Z,17.50
2019-01-30T10:44:27.395Z,17.40
2019-01-30T10:45:27.407Z,16.70
2019-01-30T10:46:27.374Z,17.10
2019-01-30T10:47:27.399Z,17.40
2019-01-30T10:48:27.346Z,16.70
2019-01-30T10:49:27.384Z,17.40
2019-01-30T10:50:27.335Z,16.70
2019-01-30T10:51:27.315Z,16.20
2019-01-30T10:52:27.302Z,17.50
2019-01-30T10:53:27.307Z,17.60
2019-01-30T10:54:27.310Z,17.80
2019-01-30T10:55:27.311Z,17.60
2019-01-30T10:56:27.265Z,18.50
2019-01-30T10:57:27.259Z,17.30
2019-01-30T10:58:27.356Z,17.70
2019-01-30T10:59:27.247Z,18.30
2019-01-30T11:00:27.223Z,18.00
2019-01-30T11:01:27.294Z,18.50
2019-01-30T11:02:27.198Z,18.20
2019-01-30T11:03:27.184Z,17.70
2019-01-30T11:04:27.180Z,17.40
2019-01-30T11:05:27.165Z,19.00
2019-01-30T11:06:27.153Z,18.00
2019-01-30T11:07:27.176Z,19.00
2019-01-30T11:08:27.142Z,19.50
2019-01-30T11:09:27.127Z,18.50
2019-01-30T11:10:27.114Z,19.70
2019-01-30T11:11:27.100Z,19.00
2019-01-30T11:12:27.118Z,18.70
2019-01-30T11:13:27.107Z,18.90
2019-01-30T11:14:27.110Z,17.80
2019-01-30T11:15:27.066Z,18.20
2019-01-30T11:16:27.040Z,18.80
2019-01-30T11:17:27.038Z,17.60
2019-01-30T11:18:27.061Z,18.30
2019-01-30T11:19:27.196Z,17.60
2019-01-30T11:20:27.001Z,18.30
2019-01-30T11:21:26.991Z,17.80
2019-01-30T11:22:27.679Z,17.80
2019-01-30T11:23:26.966Z,18.00
2019-01-30T11:24:26.986Z,18.10
2019-01-30T11:25:26.971Z,18.40
2019-01-30T11:26:26.936Z,18.70
2019-01-30T11:27:26.925Z,17.30
2019-01-30T11:28:26.913Z,18.20
2019-01-30T11:29:26.917Z,18.40
2019-01-30T11:30:26.918Z,18.40
2019-01-30T11:31:26.880Z,18.30
2019-01-30T11:32:26.879Z,17.60
2019-01-30T11:33:26.867Z,18.30
2019-01-30T11:34:26.858Z,18.30
2019-01-30T11:35:26.867Z,18.20
2019-01-30T11:36:26.837Z,18.80
2019-01-30T11:37:26.857Z,19.40
2019-01-30T11:38:27.690Z,21.00
2019-01-30T11:39:26.800Z,19.40
2019-01-30T11:40:26.788Z,19.40
2019-01-30T11:41:26.825Z,18.90
2019-01-30T11:42:26.764Z,19.40
2019-01-30T11:43:26.752Z,19.80
2019-01-30T11:44:27.947Z,19.70
2019-01-30T11:45:26.724Z,19.90
2019-01-30T11:46:26.718Z,19.30
2019-01-30T11:47:26.732Z,19.70
2019-01-30T11:48:26.695Z,18.80
2019-01-30T11:49:26.712Z,19.90
2019-01-30T11:50:26.686Z,18.80
2019-01-30T11:51:26.670Z,19.30
2019-01-30T11:52:26.696Z,18.80
2019-01-30T11:53:26.652Z,19.30
2019-01-30T11:54:26.839Z,19.00
2019-01-30T11:55:26.617Z,20.00
2019-01-30T11:56:26.615Z,19.30
2019-01-30T11:57:26.693Z,19.60
2019-01-30T11:58:26.593Z,19.60
2019-01-30T11:59:26.585Z,19.90
2019-01-30T12:00:26.562Z,19.50
2019-01-30T12:01:26.588Z,20.30
2019-01-30T12:02:26.570Z,19.90
2019-01-30T12:03:26.650Z,20.40
2019-01-30T12:04:26.526Z,40.40
2019-01-30T12:05:26.555Z,29.90
2019-01-30T12:06:26.525Z,22.00
2019-01-30T12:07:26.506Z,20.00
2019-01-30T12:08:26.481Z,20.50
2019-01-30T12:09:26.488Z,19.40
2019-01-30T12:10:26.457Z,19.70
2019-01-30T12:11:26.445Z,20.00
2019-01-30T12:12:26.477Z,19.60
2019-01-30T12:13:26.429Z,19.80
2019-01-30T12:14:26.416Z,19.60
2019-01-30T12:15:26.517Z,19.10
2019-01-30T12:16:26.396Z,19.20
2019-01-30T12:17:26.387Z,19.20
2019-01-30T12:18:27.197Z,19.40
2019-01-30T12:19:26.358Z,18.90
2019-01-30T12:20:26.342Z,18.50
2019-01-30T12:21:26.391Z,18.70
2019-01-30T12:22:26.336Z,18.50
2019-01-30T12:23:26.321Z,18.80
2019-01-30T12:24:26.305Z,18.60
2019-01-30T12:25:26.295Z,18.20
2019-01-30T12:26:26.314Z,19.00
2019-01-30T12:27:26.276Z,19.30
2019-01-30T12:28:26.270Z,19.10
2019-01-30T12:29:26.249Z,18.90
2019-01-30T12:30:26.243Z,18.70
2019-01-30T12:31:26.251Z,18.60
2019-01-30T12:32:26.234Z,19.20
2019-01-30T12:33:26.212Z,19.60
2019-01-30T12:34:28.253Z,19.30
2019-01-30T12:35:26.187Z,19.20
2019-01-30T12:36:26.177Z,20.20
2019-01-30T12:37:26.240Z,19.50
2019-01-30T12:38:26.148Z,20.40
2019-01-30T12:39:26.147Z,19.60
2019-01-30T12:40:26.133Z,19.60
2019-01-30T12:41:26.175Z,18.60
2019-01-30T12:42:26.107Z,19.80
2019-01-30T12:43:26.127Z,19.10
2019-01-30T12:44:26.111Z,19.90
2019-01-30T12:45:26.088Z,19.40
2019-01-30T12:46:26.934Z,18.90
2019-01-30T12:47:26.048Z,20.20
2019-01-30T12:48:26.066Z,20.10
2019-01-30T12:49:26.030Z,19.50
2019-01-30T12:50:26.024Z,19.90
2019-01-30T12:51:26.021Z,19.90
2019-01-30T12:52:25.997Z,21.10
2019-01-30T12:53:26.011Z,20.50
2019-01-30T12:54:25.977Z,19.60
2019-01-30T12:55:25.961Z,20.20
2019-01-30T12:56:25.952Z,19.90
2019-01-30T12:57:25.943Z,19.50
2019-01-30T12:58:25.929Z,20.00
2019-01-30T12:59:25.956Z,20.00
2019-01-30T13:00:25.909Z,20.00
2019-01-30T13:01:25.932Z,20.00
2019-01-30T13:02:25.895Z,20.00
2019-01-30T13:03:25.887Z,19.40
2019-01-30T13:04:25.895Z,19.20
2019-01-30T13:05:25.887Z,19.10
2019-01-30T13:06:25.878Z,19.50
2019-01-30T13:07:25.843Z,18.70
2019-01-30T13:08:25.826Z,19.30
2019-01-30T13:09:25.813Z,19.60
2019-01-30T13:10:25.813Z,19.20
2019-01-30T13:11:25.829Z,19.30
2019-01-30T13:12:25.786Z,19.20
2019-01-30T13:13:25.777Z,20.10
2019-01-30T13:14:25.761Z,20.40
2019-01-30T13:15:25.788Z,20.00